Time;durP1;ratioP1;P1;durP2;ratioP2;P2;SDS_P1;SDS_P2;PMS_P1;PMS_P2;Temp;Humidity;BMP_temperature;BMP_pressure;BME280_temperature;BME280_humidity;BME280_pressure;Samples;Min_cycle;Max_cycle;Signal;HPM_P1;HPM_P2
2021/07/03 00:00:21;;;;;;;12.35;6.65;;;;;;;15.43;75.85;101258.28;5013997;28;20053;-69
2021/07/03 00:02:47;;;;;;;12.93;7.10;;;;;;;15.37;76.13;101267.50;5014056;28;20053;-70
2021/07/03 00:05:13;;;;;;;17.50;7.47;;;;;;;15.37;76.01;101267.50;5013981;28;20030;-70
2021/07/03 00:07:38;;;;;;;12.75;6.70;;;;;;;15.35;76.33;101270.03;5014077;28;20034;-70
2021/07/03 00:10:05;;;;;;;10.95;6.63;;;;;;;15.33;76.40;101264.81;5029123;28;20037;-69
2021/07/03 00:12:30;;;;;;;19.48;7.18;;;;;;;15.38;76.31;101270.19;5012754;28;20025;-70
2021/07/03 00:14:56;;;;;;;12.48;7.03;;;;;;;15.32;76.44;101265.63;5012480;28;20060;-70
2021/07/03 00:17:21;;;;;;;11.75;7.47;;;;;;;15.25;76.72;101273.09;5012468;28;20042;-70
2021/07/03 00:19:47;;;;;;;13.88;7.55;;;;;;;15.25;76.39;101267.91;5013742;28;20029;-70
2021/07/03 00:22:12;;;;;;;12.13;7.70;;;;;;;15.14;76.68;101265.75;5012869;28;20037;-70
2021/07/03 00:24:38;;;;;;;13.23;7.07;;;;;;;15.03;76.79;101262.75;5013783;28;20467;-70
2021/07/03 00:27:04;;;;;;;11.20;7.22;;;;;;;15.02;76.81;101265.28;5013762;28;20088;-70
2021/07/03 00:29:30;;;;;;;13.18;7.55;;;;;;;15.00;77.34;101269.50;5006046;28;20084;-71
2021/07/03 00:31:55;;;;;;;16.25;6.97;;;;;;;14.96;77.70;101270.22;5028635;28;20117;-70
2021/07/03 00:34:21;;;;;;;11.02;6.97;;;;;;;14.94;77.58;101271.84;5012168;28;20037;-70
2021/07/03 00:36:47;;;;;;;14.23;7.20;;;;;;;14.94;77.12;101274.44;5012536;28;20037;-70
2021/07/03 00:39:12;;;;;;;10.93;6.82;;;;;;;14.84;77.47;101266.28;5012719;28;20079;-70
2021/07/03 00:41:38;;;;;;;14.05;6.75;;;;;;;14.83;77.46;101269.69;5012499;28;20029;-70
2021/07/03 00:44:03;;;;;;;11.48;7.18;;;;;;;14.78;77.78;101271.22;5013594;28;20111;-70
2021/07/03 00:46:29;;;;;;;13.35;7.95;;;;;;;14.73;77.45;101267.53;5013611;28;20080;-69
2021/07/03 00:48:55;;;;;;;12.30;7.43;;;;;;;14.68;77.83;101269.03;5012044;28;20030;-70
2021/07/03 00:51:20;;;;;;;12.07;7.28;;;;;;;14.67;77.59;101272.44;5013450;28;20033;-69
2021/07/03 00:53:46;;;;;;;12.20;6.97;;;;;;;14.64;78.08;101267.13;5012362;28;20096;-70
2021/07/03 00:56:12;;;;;;;12.18;7.72;;;;;;;14.63;77.80;101270.53;5012272;28;20029;-69
2021/07/03 00:58:37;;;;;;;12.70;7.60;;;;;;;14.65;77.76;101276.66;4995247;28;20116;-70
2021/07/03 01:01:03;;;;;;;12.90;7.30;;;;;;;14.63;77.56;101273.13;5028377;28;20061;-70
2021/07/03 01:03:29;;;;;;;16.48;7.45;;;;;;;14.59;77.64;101269.50;5027834;28;20109;-70
2021/07/03 01:05:54;;;;;;;13.70;7.13;;;;;;;14.55;77.82;101268.50;5013141;28;20494;-70
2021/07/03 01:08:19;;;;;;;10.07;7.38;;;;;;;14.49;77.81;101270.84;5012179;28;20026;-71
2021/07/03 01:10:45;;;;;;;11.70;7.60;;;;;;;14.46;77.67;101268.97;4995278;28;20483;-71
2021/07/03 01:13:10;;;;;;;12.70;7.90;;;;;;;14.40;78.00;101271.31;5011886;28;20036;-70
2021/07/03 01:15:36;;;;;;;15.82;7.63;;;;;;;14.35;78.16;101275.41;5012063;28;20439;-70
2021/07/03 01:18:03;;;;;;;11.65;7.43;;;;;;;14.32;78.89;101276.16;5011396;28;20069;-70
2021/07/03 01:20:28;;;;;;;12.25;7.70;;;;;;;14.32;78.61;101276.16;5011744;28;20037;-70
2021/07/03 01:22:54;;;;;;;15.85;8.10;;;;;;;14.32;78.03;101276.16;5012574;28;20041;-70
2021/07/03 01:25:19;;;;;;;14.23;7.65;;;;;;;14.26;78.93;101270.69;5011464;28;20038;-70
2021/07/03 01:28:00;;;;;;;12.60;7.40;;;;;;;14.26;78.61;101270.69;5028540;28;20467;-69
2021/07/03 01:30:26;;;;;;;12.10;7.90;;;;;;;14.27;78.08;101262.09;5011594;28;20395;-69
2021/07/03 01:32:52;;;;;;;11.77;7.68;;;;;;;14.20;78.47;101267.81;5027993;28;20121;-70
2021/07/03 01:35:18;;;;;;;11.40;7.93;;;;;;;14.16;78.41;101273.69;5027968;28;20117;-70
2021/07/03 01:37:44;;;;;;;15.43;7.75;;;;;;;14.09;78.64;101276.81;5011388;28;20113;-70
2021/07/03 01:40:11;;;;;;;11.88;7.68;;;;;;;14.09;78.88;101276.81;5027801;28;20377;-69
2021/07/03 01:42:38;;;;;;;11.27;7.22;;;;;;;14.07;79.39;101278.47;5011043;28;20363;-70
2021/07/03 01:45:04;;;;;;;12.38;7.82;;;;;;;14.08;78.55;101275.06;5013230;28;20026;-70
2021/07/03 01:47:29;;;;;;;11.98;7.25;;;;;;;14.07;78.21;101270.69;5015813;28;20046;-70
2021/07/03 01:49:55;;;;;;;16.70;8.23;;;;;;;14.01;78.34;101269.59;5016981;28;20446;-70
2021/07/03 01:52:20;;;;;;;16.45;7.38;;;;;;;13.97;78.47;101272.88;5016301;28;20034;-70
2021/07/03 01:54:46;;;;;;;14.07;7.72;;;;;;;13.93;78.63;101273.53;5031868;28;20068;-70
2021/07/03 01:57:12;;;;;;;12.00;7.82;;;;;;;13.85;78.93;101272.31;5016777;28;20041;-70
2021/07/03 01:59:37;;;;;;;13.15;7.55;;;;;;;13.86;78.81;101263.72;5031698;28;20040;-70
2021/07/03 02:02:03;;;;;;;14.82;8.10;;;;;;;13.82;79.05;101267.00;5026068;28;20034;-69
2021/07/03 02:04:30;;;;;;;11.85;8.32;;;;;;;13.77;79.37;101258.13;5035018;28;20051;-70
2021/07/03 02:06:55;;;;;;;13.88;8.13;;;;;;;13.78;79.24;101259.91;5025710;28;20034;-69
2021/07/03 02:09:22;;;;;;;10.55;7.32;;;;;;;13.78;79.13;101260.78;5016034;28;20032;-69
2021/07/03 02:11:47;;;;;;;14.18;9.02;;;;;;;13.77;79.38;101263.31;5016265;28;20022;-69
2021/07/03 02:14:13;;;;;;;13.02;8.52;;;;;;;13.73;79.16;101262.25;5031910;28;20025;-69
2021/07/03 02:16:39;;;;;;;14.25;8.55;;;;;;;13.70;79.37;101257.84;5031700;28;20049;-70
2021/07/03 02:19:05;;;;;;;14.18;7.90;;;;;;;13.70;79.33;101257.84;5031384;28;20022;-69
2021/07/03 02:21:31;;;;;;;14.30;7.90;;;;;;;13.68;79.32;101254.31;5031356;28;20053;-69
2021/07/03 02:23:57;;;;;;;18.20;9.02;;;;;;;13.69;79.41;101256.06;5000131;28;20391;-69
2021/07/03 02:26:24;;;;;;;10.48;8.18;;;;;;;13.66;79.15;101255.94;4998173;28;20053;-69
2021/07/03 02:28:51;;;;;;;12.10;7.97;;;;;;;13.67;79.09;101257.72;5016042;28;20103;-70
2021/07/03 02:31:18;;;;;;;12.00;8.00;;;;;;;13.63;78.95;101255.78;5030702;28;20030;-69
2021/07/03 02:33:44;;;;;;;12.23;7.55;;;;;;;13.61;78.97;101254.84;5020493;28;20104;-69
2021/07/03 02:36:10;;;;;;;13.23;7.50;;;;;;;13.59;79.10;101246.13;5024500;28;20046;-68
2021/07/03 02:38:35;;;;;;;10.82;7.43;;;;;;;13.57;79.23;101245.16;5026117;28;20056;-69
2021/07/03 02:41:01;;;;;;;13.20;7.38;;;;;;;13.56;79.12;101248.56;5007281;28;20072;-68
2021/07/03 02:43:26;;;;;;;12.95;7.70;;;;;;;13.55;79.26;101246.78;5015498;28;20030;-69
2021/07/03 02:45:52;;;;;;;12.48;7.97;;;;;;;13.56;78.92;101243.38;5015946;28;20030;-68
2021/07/03 02:48:17;;;;;;;11.32;8.00;;;;;;;13.49;79.59;101251.69;5015900;28;20029;-69
2021/07/03 02:50:42;;;;;;;10.90;7.80;;;;;;;13.50;79.00;101248.28;5015299;28;20026;-68
2021/07/03 02:53:32;;;;;;;12.23;7.80;;;;;;;13.46;78.90;101251.53;5027672;28;20030;-69
2021/07/03 02:55:59;;;;;;;11.77;8.00;;;;;;;13.42;79.24;101256.56;5004166;28;20041;-69
2021/07/03 02:58:25;;;;;;;15.80;7.75;;;;;;;13.41;79.22;101257.34;5013377;28;20033;-69
2021/07/03 03:00:50;;;;;;;17.00;8.60;;;;;;;13.37;79.41;101245.06;5013622;28;20096;-69
2021/07/03 03:03:16;;;;;;;13.40;8.30;;;;;;;13.42;79.09;101246.22;5015606;28;20033;-68
2021/07/03 03:05:41;;;;;;;10.95;8.07;;;;;;;13.42;79.47;101251.38;5014411;28;20038;-69
2021/07/03 03:08:06;;;;;;;11.15;7.85;;;;;;;13.46;79.61;101241.19;5015188;28;20033;-69
2021/07/03 03:10:32;;;;;;;14.20;7.93;;;;;;;13.47;78.96;101253.31;5015156;28;20042;-69
2021/07/03 03:12:58;;;;;;;16.67;8.25;;;;;;;13.43;79.08;101253.16;5014106;28;20088;-69
2021/07/03 03:15:23;;;;;;;12.80;7.93;;;;;;;13.42;78.99;101241.03;5030606;28;20037;-70
2021/07/03 03:17:49;;;;;;;11.00;7.43;;;;;;;13.39;79.42;101243.44;5029878;28;20048;-69
2021/07/03 03:20:15;;;;;;;11.93;8.13;;;;;;;13.42;79.30;101241.03;5030685;28;20068;-70
2021/07/03 03:22:42;;;;;;;12.15;8.93;;;;;;;13.41;79.14;101244.41;5013383;28;20100;-69
2021/07/03 03:25:08;;;;;;;13.43;7.78;;;;;;;13.41;79.14;101249.59;5013969;28;20507;-69
2021/07/03 03:27:33;;;;;;;13.32;8.05;;;;;;;13.36;79.59;101248.47;5014160;28;20032;-69
2021/07/03 03:29:59;;;;;;;12.10;8.55;;;;;;;13.44;79.49;101247.16;5013702;28;20023;-69
2021/07/03 03:32:25;;;;;;;11.88;8.13;;;;;;;13.45;79.60;101250.63;5014590;28;20384;-69
2021/07/03 03:34:51;;;;;;;13.25;8.60;;;;;;;13.50;79.38;101254.31;5014958;28;20026;-69
2021/07/03 03:37:16;;;;;;;15.70;8.82;;;;;;;13.57;79.88;101252.91;5030677;28;20030;-69
2021/07/03 03:39:42;;;;;;;17.73;8.75;;;;;;;13.59;79.86;101248.69;5030304;28;20079;-69
2021/07/03 03:42:08;;;;;;;10.68;8.02;;;;;;;13.68;79.68;101248.22;5013404;28;20070;-69
2021/07/03 03:44:33;;;;;;;15.27;9.15;;;;;;;13.78;79.28;101254.72;5013730;28;20048;-69
2021/07/03 03:46:59;;;;;;;15.25;8.73;;;;;;;13.83;79.18;101248.06;4997239;28;20037;-69
2021/07/03 03:49:24;;;;;;;11.90;8.48;;;;;;;13.80;79.53;101247.91;5014586;28;20029;-68
2021/07/03 03:51:50;;;;;;;13.05;8.48;;;;;;;13.84;79.27;101255.00;5014427;28;20037;-69
2021/07/03 03:54:17;;;;;;;14.48;8.57;;;;;;;13.96;78.79;101259.88;5013487;28;20030;-69
2021/07/03 03:56:43;;;;;;;11.45;8.20;;;;;;;14.01;78.54;101264.41;5014632;28;20479;-69
2021/07/03 03:59:10;;;;;;;13.18;8.35;;;;;;;13.96;78.92;101263.31;5013351;28;20396;-69
2021/07/03 04:01:36;;;;;;;14.13;8.55;;;;;;;14.08;78.90;101259.50;5012443;28;20483;-70
2021/07/03 04:04:03;;;;;;;13.15;8.90;;;;;;;14.29;78.27;101257.88;5013676;28;20045;-70
2021/07/03 04:06:29;;;;;;;13.80;9.20;;;;;;;14.34;78.43;101257.22;5012868;28;20029;-69
2021/07/03 04:08:54;;;;;;;17.48;9.77;;;;;;;14.32;78.55;101259.72;5012457;28;20256;-69
2021/07/03 04:11:20;;;;;;;15.23;9.73;;;;;;;14.35;78.38;101259.00;5014115;28;20112;-69
2021/07/03 04:13:45;;;;;;;18.45;10.32;;;;;;;14.43;78.28;101260.19;5012675;28;20022;-69
2021/07/03 04:16:10;;;;;;;16.25;9.57;;;;;;;14.45;78.70;101262.03;5013851;28;20160;-69
2021/07/03 04:18:36;;;;;;;15.00;9.85;;;;;;;14.56;78.57;101259.91;5012890;28;20026;-70
2021/07/03 04:21:01;;;;;;;14.18;9.80;;;;;;;14.76;77.95;101262.47;5013379;28;20076;-69
2021/07/03 04:23:27;;;;;;;16.13;9.98;;;;;;;14.63;78.14;101260.16;5014121;28;20241;-70
2021/07/03 04:25:52;;;;;;;15.60;10.60;;;;;;;14.78;77.96;101260.84;4996257;28;20037;-69
2021/07/03 04:28:18;;;;;;;17.98;10.00;;;;;;;14.72;77.97;101260.59;5013814;28;20022;-69
2021/07/03 04:30:43;;;;;;;13.07;9.43;;;;;;;14.82;77.99;101260.16;5012245;28;20072;-69
2021/07/03 04:33:09;;;;;;;16.35;9.30;;;;;;;15.04;77.19;101253.25;5011860;28;20022;-69
2021/07/03 04:35:35;;;;;;;16.52;9.48;;;;;;;15.06;77.32;101251.59;5013570;28;20036;-70
2021/07/03 04:38:00;;;;;;;15.80;8.93;;;;;;;15.07;77.25;101248.19;5028751;28;20037;-70
2021/07/03 04:40:26;;;;;;;16.85;9.00;;;;;;;15.06;76.94;101251.59;5028601;28;20049;-69
2021/07/03 04:42:51;;;;;;;19.20;9.27;;;;;;;15.06;77.32;101255.91;5011827;28;20105;-70
2021/07/03 04:45:17;;;;;;;15.80;8.30;;;;;;;14.86;77.68;101254.25;5028868;28;20073;-69
2021/07/03 04:47:42;;;;;;;13.40;9.45;;;;;;;15.02;77.85;101260.06;5013773;28;20022;-69
2021/07/03 04:50:09;;;;;;;14.63;8.00;;;;;;;15.14;77.28;101260.56;5021286;28;20097;-69
2021/07/03 04:52:36;;;;;;;15.95;9.65;;;;;;;15.09;76.92;101256.91;5026536;28;20091;-69
2021/07/03 04:55:05;;;;;;;14.73;8.15;;;;;;;14.94;77.70;101256.28;5021610;28;20032;-69
2021/07/03 04:57:31;;;;;;;12.20;7.97;;;;;;;14.91;78.12;101257.06;5019411;28;20160;-69
2021/07/03 04:59:56;;;;;;;12.00;8.30;;;;;;;15.01;77.83;101255.72;5024887;28;20116;-68
2021/07/03 05:02:22;;;;;;;14.82;8.57;;;;;;;15.07;78.08;101263.75;5028423;28;20042;-69
2021/07/03 05:04:47;;;;;;;15.75;9.43;;;;;;;14.94;78.92;101256.28;5028274;28;20120;-69
2021/07/03 05:07:12;;;;;;;14.20;9.40;;;;;;;15.15;78.64;101257.16;5012661;28;20084;-69
2021/07/03 05:09:38;;;;;;;15.90;9.10;;;;;;;15.36;77.87;101265.75;5015571;28;20021;-69
2021/07/03 05:12:04;;;;;;;15.07;9.25;;;;;;;15.31;78.01;101268.16;5013155;28;20044;-70
2021/07/03 05:14:30;;;;;;;14.73;8.00;;;;;;;15.23;77.78;101269.56;5011781;28;20112;-69
2021/07/03 05:16:55;;;;;;;17.88;9.23;;;;;;;15.36;77.86;101261.44;5012728;28;20487;-69
2021/07/03 05:19:21;;;;;;;13.85;8.50;;;;;;;15.41;77.45;101270.31;5027554;28;20467;-69
2021/07/03 05:21:46;;;;;;;13.43;7.38;;;;;;;15.54;77.09;101265.59;5027319;28;20052;-69
2021/07/03 05:24:12;;;;;;;14.93;8.05;;;;;;;15.57;76.93;101270.91;5013060;28;20026;-69
2021/07/03 05:26:37;;;;;;;12.50;7.68;;;;;;;15.73;76.74;101268.06;5013104;28;20026;-69
2021/07/03 05:29:04;;;;;;;15.18;8.02;;;;;;;15.76;76.69;101268.19;5027574;28;20037;-69
2021/07/03 05:31:30;;;;;;;14.63;7.80;;;;;;;15.90;75.61;101270.44;5010779;28;20495;-69
2021/07/03 05:33:56;;;;;;;15.20;7.38;;;;;;;15.86;75.62;101264.19;5011053;28;20528;-70
2021/07/03 05:36:21;;;;;;;11.38;7.32;;;;;;;15.67;76.03;101272.13;5027270;28;20034;-69
2021/07/03 05:38:48;;;;;;;14.05;8.30;;;;;;;15.65;76.09;101274.69;5012052;28;20056;-69
2021/07/03 05:41:15;;;;;;;13.98;7.22;;;;;;;15.72;75.71;101270.59;5011028;28;20109;-70
2021/07/03 05:43:41;;;;;;;14.60;7.05;;;;;;;15.81;75.82;101270.06;5027540;28;20424;-70
2021/07/03 05:46:07;;;;;;;10.98;6.22;;;;;;;15.89;74.88;101268.69;5027039;28;20110;-70
2021/07/03 05:48:34;;;;;;;9.88;6.70;;;;;;;15.95;75.24;101279.28;5017713;28;20100;-69
2021/07/03 05:50:59;;;;;;;12.10;6.78;;;;;;;16.06;74.85;101271.91;5021467;28;20482;-69
2021/07/03 05:53:25;;;;;;;8.68;5.90;;;;;;;16.25;73.81;101269.97;5012264;28;20087;-68
2021/07/03 05:55:50;;;;;;;10.40;6.00;;;;;;;16.38;73.61;101263.47;5020887;28;20030;-69
2021/07/03 05:58:16;;;;;;;12.10;5.68;;;;;;;16.50;72.75;101275.22;5020985;28;20586;-69
2021/07/03 06:00:41;;;;;;;15.68;5.00;;;;;;;17.07;70.10;101283.19;5021935;28;20025;-69
2021/07/03 06:03:07;;;;;;;10.65;4.50;;;;;;;17.06;69.56;101281.44;5023729;28;20048;-69
2021/07/03 06:05:32;;;;;;;7.43;4.68;;;;;;;17.33;69.11;101275.34;5019126;28;20029;-69
2021/07/03 06:07:58;;;;;;;6.75;4.43;;;;;;;17.30;68.95;101280.44;5013924;28;20030;-69
2021/07/03 06:10:23;;;;;;;14.00;4.70;;;;;;;17.23;68.58;101275.03;5011154;28;20115;-68
2021/07/03 06:12:49;;;;;;;6.75;4.45;;;;;;;17.44;68.56;101273.94;5011234;28;20034;-69
2021/07/03 06:15:14;;;;;;;9.75;4.80;;;;;;;17.42;67.14;101275.63;5012348;28;20057;-68
2021/07/03 06:17:40;;;;;;;8.45;4.93;;;;;;;17.70;66.38;101260.88;5010641;28;20049;-69
2021/07/03 06:20:08;;;;;;;7.43;4.18;;;;;;;17.99;65.87;101258.22;5012513;28;20018;-69
2021/07/03 06:22:34;;;;;;;10.35;4.78;;;;;;;18.27;64.52;101259.00;5012210;28;20057;-68
2021/07/03 06:24:59;;;;;;;9.52;3.90;;;;;;;18.12;65.06;101269.91;5011420;28;20049;-68
2021/07/03 06:27:25;;;;;;;9.13;4.18;;;;;;;18.07;65.74;101267.16;5012510;28;20038;-68
2021/07/03 06:29:50;;;;;;;7.97;4.03;;;;;;;18.61;65.06;101259.94;5012226;28;20093;-68
2021/07/03 06:32:16;;;;;;;10.48;4.88;;;;;;;18.55;64.05;101270.19;5029405;28;20033;-69
2021/07/03 06:34:41;;;;;;;7.05;4.43;;;;;;;18.55;63.41;101264.97;5031482;28;20061;-68
2021/07/03 06:37:06;;;;;;;8.45;4.30;;;;;;;18.59;63.46;101265.94;5015809;28;20045;-69
2021/07/03 06:39:32;;;;;;;8.68;4.88;;;;;;;18.19;64.16;101260.53;5015421;28;20029;-68
2021/07/03 06:41:57;;;;;;;9.25;4.35;;;;;;;18.55;63.38;101259.75;5015434;28;20369;-68
2021/07/03 06:44:23;;;;;;;5.55;3.97;;;;;;;18.63;62.57;101257.34;5016788;28;20026;-68
2021/07/03 06:46:49;;;;;;;5.65;3.65;;;;;;;19.07;62.20;101259.34;5014334;28;20431;-69
2021/07/03 06:49:15;;;;;;;7.80;3.97;;;;;;;18.98;60.47;101260.88;5014202;28;20030;-69
2021/07/03 06:51:41;;;;;;;7.75;4.05;;;;;;;19.05;61.93;101261.03;5015724;28;20137;-69
2021/07/03 06:54:07;;;;;;;7.75;4.20;;;;;;;19.14;61.52;101256.03;5015378;28;20029;-68
2021/07/03 06:56:33;;;;;;;8.10;3.88;;;;;;;19.64;59.90;101265.00;5013336;28;20033;-69
2021/07/03 06:58:58;;;;;;;8.05;4.22;;;;;;;19.45;59.38;101267.19;5015593;28;20030;-68
2021/07/03 07:01:24;;;;;;;7.05;3.92;;;;;;;19.15;59.98;101268.22;5013493;28;20034;-68
2021/07/03 07:03:49;;;;;;;5.57;3.28;;;;;;;19.05;60.77;101266.25;5016176;28;20041;-68
2021/07/03 07:06:15;;;;;;;7.80;3.97;;;;;;;18.95;61.25;101265.09;4997605;28;20519;-68
2021/07/03 07:08:40;;;;;;;8.20;3.92;;;;;;;18.97;60.03;101259.13;5014313;28;20029;-69
2021/07/03 07:11:06;;;;;;;9.05;3.78;;;;;;;18.68;61.14;101261.84;5013930;28;20034;-69
2021/07/03 07:13:32;;;;;;;6.78;3.72;;;;;;;18.66;62.22;101268.75;5014006;28;20025;-69
2021/07/03 07:15:57;;;;;;;4.90;3.72;;;;;;;18.83;60.83;101265.69;5014772;28;20100;-68
2021/07/03 07:18:23;;;;;;;7.00;4.00;;;;;;;18.71;60.26;101265.38;5015049;28;20152;-68
2021/07/03 07:20:49;;;;;;;6.60;3.75;;;;;;;18.80;59.46;101265.63;5013583;28;20049;-69
2021/07/03 07:23:15;;;;;;;5.93;4.32;;;;;;;18.83;59.21;101265.69;5013846;28;20056;-69
2021/07/03 07:25:41;;;;;;;5.30;3.55;;;;;;;18.96;59.76;101267.75;5030563;28;20112;-69
2021/07/03 07:28:07;;;;;;;7.22;3.83;;;;;;;19.13;58.68;101264.72;5013756;28;20100;-69
2021/07/03 07:30:32;;;;;;;7.50;3.80;;;;;;;19.20;59.08;101266.63;5013437;28;20109;-69
2021/07/03 07:32:57;;;;;;;8.93;3.70;;;;;;;19.79;58.02;101261.81;5013567;28;20501;-69
2021/07/03 07:35:23;;;;;;;5.35;3.05;;;;;;;19.99;56.28;101264.88;5015032;28;20156;-69
2021/07/03 07:37:48;;;;;;;4.00;2.80;;;;;;;19.83;56.11;101268.88;5029954;28;20033;-69
2021/07/03 07:40:15;;;;;;;5.75;3.13;;;;;;;19.44;56.57;101259.31;5029692;28;20036;-69
2021/07/03 07:42:41;;;;;;;5.55;2.97;;;;;;;19.15;57.76;101268.22;5013980;28;20436;-69
2021/07/03 07:45:08;;;;;;;4.75;2.75;;;;;;;19.76;56.63;101259.13;5014533;28;20119;-69
2021/07/03 07:47:34;;;;;;;5.38;3.55;;;;;;;19.73;56.38;101257.34;5014680;28;20033;-69
2021/07/03 07:49:59;;;;;;;8.55;3.03;;;;;;;20.12;55.00;101256.44;5014382;28;20030;-69
2021/07/03 07:52:25;;;;;;;6.00;2.58;;;;;;;20.15;54.79;101255.63;5014677;28;20033;-74
2021/07/03 07:54:51;;;;;;;4.53;2.55;;;;;;;19.92;53.70;101252.53;5014745;28;20429;-74
2021/07/03 07:57:17;;;;;;;5.97;2.95;;;;;;;20.30;53.28;101255.00;5014638;28;20468;-73
2021/07/03 07:59:43;;;;;;;5.30;2.72;;;;;;;20.35;53.12;101255.97;5014224;28;20028;-74
2021/07/03 08:02:08;;;;;;;4.72;2.70;;;;;;;20.84;52.91;101253.38;5011670;28;20390;-73
2021/07/03 08:04:33;;;;;;;4.75;2.50;;;;;;;20.37;52.65;101251.66;5014165;28;20057;-72
2021/07/03 08:06:59;;;;;;;4.68;2.50;;;;;;;20.58;53.06;101250.28;5013009;28;20037;-73
2021/07/03 08:09:24;;;;;;;4.43;2.70;;;;;;;20.72;52.10;101248.81;5014175;28;20033;-73
2021/07/03 08:11:50;;;;;;;3.90;2.40;;;;;;;20.54;52.70;101243.22;5027673;28;20058;-73
2021/07/03 08:14:15;;;;;;;3.60;2.50;;;;;;;20.44;53.60;101240.44;5013183;28;20054;-72
2021/07/03 08:16:40;;;;;;;6.47;2.80;;;;;;;20.67;53.62;101239.09;5012038;28;20049;-73
2021/07/03 08:19:06;;;;;;;6.70;2.60;;;;;;;19.99;53.98;101238.75;5028794;28;20037;-72
2021/07/03 08:21:31;;;;;;;4.57;2.90;;;;;;;20.58;54.57;101234.56;5014005;28;20036;-72
2021/07/03 08:23:57;;;;;;;6.13;2.40;;;;;;;20.82;52.93;101238.53;5013561;28;20044;-73
2021/07/03 08:26:22;;;;;;;3.78;2.47;;;;;;;20.54;53.17;101230.13;5014024;28;20041;-72
2021/07/03 08:28:48;;;;;;;3.67;2.17;;;;;;;20.42;52.03;101229.06;5014535;28;20040;-72
2021/07/03 08:31:13;;;;;;;5.32;2.40;;;;;;;20.41;51.89;101235.16;5028741;28;20140;-72
2021/07/03 08:33:39;;;;;;;4.22;2.40;;;;;;;20.80;50.99;101230.63;5028819;28;20079;-72
2021/07/03 08:36:04;;;;;;;3.72;2.10;;;;;;;21.39;51.08;101222.75;5014063;28;20112;-73
2021/07/03 08:38:32;;;;;;;3.53;2.35;;;;;;;21.81;49.01;101213.75;5012415;28;20092;-72
2021/07/03 08:40:58;;;;;;;3.83;2.20;;;;;;;22.07;49.25;101231.50;5013618;28;20030;-73
2021/07/03 08:43:24;;;;;;;2.83;1.83;;;;;;;21.99;47.82;101233.16;5028849;28;20029;-73
2021/07/03 08:45:57;;;;;;;2.95;2.13;;;;;;;22.23;47.09;101236.91;5013745;28;20029;-72
2021/07/03 08:48:23;;;;;;;5.28;2.17;;;;;;;22.35;46.59;101230.91;5012154;28;20105;-72
2021/07/03 08:50:49;;;;;;;3.80;2.25;;;;;;;22.14;47.61;101228.09;5012809;28;20026;-74
2021/07/03 08:53:14;;;;;;;5.05;1.95;;;;;;;21.73;49.00;101221.50;5013182;28;20533;-73
2021/07/03 08:55:40;;;;;;;5.57;2.42;;;;;;;21.12;50.13;101229.38;5011525;28;20113;-73
2021/07/03 08:58:05;;;;;;;3.33;2.08;;;;;;;21.52;49.75;101224.69;5013353;28;20474;-75
2021/07/03 09:00:40;;;;;;;3.90;2.30;;;;;;;21.13;50.63;101228.50;5028271;28;20029;-72
2021/07/03 09:03:23;;;;;;;3.10;2.00;;;;;;;20.93;51.02;101234.31;5011641;28;20030;-68
2021/07/03 09:05:59;;;;;;;4.75;2.42;;;;;;;21.00;49.86;101228.34;5012385;28;20033;-69
2021/07/03 09:08:26;;;;;;;3.47;1.90;;;;;;;21.79;48.46;101214.56;5012944;28;20033;-68
2021/07/03 09:11:06;;;;;;;5.20;2.50;;;;;;;22.03;48.06;101224.47;5011880;28;20510;-68
2021/07/03 09:13:32;;;;;;;3.90;1.70;;;;;;;22.21;45.61;101212.41;5012213;28;20052;-70
2021/07/03 09:15:57;;;;;;;3.78;1.77;;;;;;;23.30;46.51;101209.81;5012963;28;20064;-68
2021/07/03 09:18:25;;;;;;;6.05;2.60;;;;;;;24.12;43.99;101217.19;5010081;28;20026;-68
2021/07/03 09:20:53;;;;;;;4.82;1.98;;;;;;;23.25;43.04;101222.06;5011060;28;20024;-69
2021/07/03 09:23:25;;;;;;;4.43;2.65;;;;;;;24.12;42.46;101219.81;5032063;28;20092;-68
2021/07/03 09:25:53;;;;;;;4.20;1.80;;;;;;;23.93;41.34;101206.59;5012622;28;20068;-69
2021/07/03 09:28:22;;;;;;;3.00;2.13;;;;;;;23.38;44.01;101216.88;5011879;28;20018;-69
2021/07/03 09:30:52;;;;;;;5.32;2.22;;;;;;;22.32;45.81;101221.25;5012359;28;20075;-69
2021/07/03 09:33:37;;;;;;;4.50;2.38;;;;;;;22.42;46.68;101215.22;5027723;28;20034;-69
2021/07/03 09:36:05;;;;;;;4.55;2.20;;;;;;;26.46;39.13;101218.38;5010915;28;20072;-69
2021/07/03 09:38:42;;;;;;;4.28;1.88;;;;;;;25.29;38.79;101207.50;5022935;28;20033;-69
2021/07/03 09:41:12;;;;;;;4.30;2.25;;;;;;;24.05;41.90;101204.88;5013915;28;20431;-69
2021/07/03 09:43:53;;;;;;;2.97;1.77;;;;;;;23.77;43.29;101204.75;5011407;28;20029;-69
2021/07/03 09:46:29;;;;;;;3.95;2.17;;;;;;;23.38;43.94;101206.34;5011409;28;20061;-69
2021/07/03 09:48:59;;;;;;;3.17;2.00;;;;;;;23.09;44.12;101207.03;5012446;28;20075;-69
2021/07/03 09:51:30;;;;;;;3.47;2.10;;;;;;;32.81;27.14;101216.75;5017743;28;20092;-69
2021/07/03 09:53:58;;;;;;;3.13;2.13;;;;;;;31.68;28.66;101214.13;5019272;28;20041;-69
2021/07/03 09:56:24;;;;;;;3.55;1.67;;;;;;;36.30;21.83;101210.16;5027773;28;20172;-70
2021/07/03 09:58:50;;;;;;;3.95;1.70;;;;;;;35.36;21.19;101196.78;5028064;28;20033;-76
2021/07/03 10:01:15;;;;;;;4.05;2.15;;;;;;;31.37;27.91;101193.75;5011047;28;20037;-75
2021/07/03 10:03:41;;;;;;;7.38;2.65;;;;;;;26.68;35.75;101199.69;5011948;28;20245;-79
2021/07/03 10:06:09;;;;;;;4.65;2.20;;;;;;;26.20;36.94;101200.97;5012498;28;20507;-75
2021/07/03 10:08:40;;;;;;;2.97;2.10;;;;;;;25.50;38.67;101198.69;5031522;28;20034;-77
2021/07/03 10:11:11;;;;;;;24.27;3.65;;;;;;;25.11;40.04;101204.91;5014556;28;20503;-76
2021/07/03 10:13:40;;;;;;;3.83;2.08;;;;;;;26.37;37.35;101207.88;5015039;28;20065;-76
2021/07/03 10:16:07;;;;;;;7.30;1.87;;;;;;;36.18;21.90;101213.47;5028937;28;20052;-74
2021/07/03 10:18:34;;;;;;;16.30;2.85;;;;;;;31.35;28.49;101203.56;5014096;28;20025;-75
2021/07/03 10:21:07;;;;;;;7.38;2.28;;;;;;;27.22;34.48;101195.66;5012784;28;20025;-70
2021/07/03 10:23:38;;;;;;;9.32;2.00;;;;;;;25.46;39.79;101196.03;5012508;28;20048;-74
2021/07/03 10:26:03;;;;;;;6.32;2.50;;;;;;;24.55;42.23;101194.41;5013830;28;20017;-71
2021/07/03 10:28:32;;;;;;;5.85;2.10;;;;;;;24.08;42.90;101194.38;5013057;28;20387;-71
2021/07/03 10:31:07;;;;;;;5.68;2.50;;;;;;;24.33;42.74;101200.53;5013250;28;20365;-71
2021/07/03 10:33:47;;;;;;;5.13;2.10;;;;;;;24.02;42.41;101194.34;5013664;28;20049;-70
2021/07/03 10:36:29;;;;;;;5.68;2.42;;;;;;;23.39;44.24;101197.59;5012998;28;20464;-70
2021/07/03 10:38:56;;;;;;;3.97;2.28;;;;;;;23.04;44.86;101197.38;5013311;28;20038;-70
2021/07/03 10:41:28;;;;;;;5.15;2.05;;;;;;;22.49;45.96;101196.94;5014157;28;20386;-71
2021/07/03 10:44:07;;;;;;;4.68;2.50;;;;;;;22.63;46.80;101192.69;5013729;28;20554;-71
2021/07/03 10:46:34;;;;;;;3.10;2.20;;;;;;;22.79;46.58;101195.44;5012838;28;20062;-71
2021/07/03 10:49:03;;;;;;;3.85;1.88;;;;;;;22.58;44.92;101191.78;5013002;28;20559;-71
2021/07/03 10:51:40;;;;;;;4.78;2.22;;;;;;;22.47;46.78;101189.06;5014146;28;20068;-69
2021/07/03 10:54:20;;;;;;;6.45;2.20;;;;;;;22.07;47.34;101189.53;5028895;28;20033;-71
2021/07/03 10:56:49;;;;;;;4.82;2.60;;;;;;;22.29;47.92;101189.75;4996828;28;20147;-71
2021/07/03 10:59:16;;;;;;;4.60;2.20;;;;;;;22.50;47.56;101198.72;5014259;28;20714;-70
2021/07/03 11:01:42;;;;;;;3.55;2.10;;;;;;;22.75;45.85;101190.16;5014266;28;20025;-71
2021/07/03 11:04:13;;;;;;;5.18;2.75;;;;;;;22.74;47.44;101190.16;5013182;28;20109;-71
2021/07/03 11:06:52;;;;;;;4.80;2.60;;;;;;;22.43;47.15;101188.13;5011898;28;20029;-71
2021/07/03 11:09:29;;;;;;;4.40;2.30;;;;;;;22.19;48.34;101194.00;5012405;28;20036;-71
2021/07/03 11:11:57;;;;;;;5.88;3.05;;;;;;;22.20;48.06;101194.91;5028743;28;20104;-70
2021/07/03 11:14:24;;;;;;;6.13;2.70;;;;;;;22.25;48.58;101187.97;5013781;28;20113;-70
2021/07/03 11:16:51;;;;;;;4.07;2.50;;;;;;;22.14;47.24;101190.47;5016767;28;20041;-71
2021/07/03 11:19:22;;;;;;;6.57;2.40;;;;;;;22.07;48.01;101194.78;5013053;28;20033;-71